Time;durP1;ratioP1;P1;durP2;ratioP2;P2;SDS_P1;SDS_P2;PMS_P1;PMS_P2;Temp;Humidity;BMP_temperature;BMP_pressure;BME280_temperature;BME280_humidity;BME280_pressure;Samples;Min_cycle;Max_cycle;Signal;HPM_P1;HPM_P2
2023/03/15 00:01:09;;;;;;;14.95;7.85;;;11.90;92.80;;;;;;5032847;28;20599;-78
2023/03/15 00:03:38;;;;;;;12.82;6.90;;;11.90;92.90;;;;;;5050865;28;20033;-78
2023/03/15 00:06:04;;;;;;;14.13;7.43;;;11.90;93.40;;;;;;5053099;28;20099;-78
2023/03/15 00:08:32;;;;;;;13.85;6.82;;;11.90;92.80;;;;;;5044572;28;20112;-78
2023/03/15 00:10:58;;;;;;;10.90;6.30;;;11.90;92.90;;;;;;5045377;28;20024;-77
2023/03/15 00:13:24;;;;;;;11.52;6.82;;;11.90;93.00;;;;;;5044784;28;20048;-77
2023/03/15 00:15:52;;;;;;;13.73;6.30;;;11.90;93.40;;;;;;5052791;28;20051;-78
2023/03/15 00:18:19;;;;;;;13.05;6.82;;;11.90;93.20;;;;;;5053168;28;20013;-78
2023/03/15 00:20:46;;;;;;;17.13;6.75;;;11.80;93.90;;;;;;5064944;28;20037;-77
2023/03/15 00:23:12;;;;;;;13.50;6.53;;;11.90;93.30;;;;;;5050787;28;20029;-76
2023/03/15 00:25:38;;;;;;;14.75;6.45;;;11.80;93.40;;;;;;5047751;28;20037;-77
2023/03/15 00:28:04;;;;;;;14.88;6.57;;;11.80;93.60;;;;;;5052944;28;20055;-76
2023/03/15 00:30:32;;;;;;;12.57;7.15;;;11.80;93.70;;;;;;5048566;28;20029;-78
2023/03/15 00:32:57;;;;;;;18.33;6.85;;;11.70;94.00;;;;;;5036812;28;20022;-78
2023/03/15 00:35:24;;;;;;;15.45;7.13;;;11.70;93.90;;;;;;5035794;28;20079;-77
2023/03/15 00:37:54;;;;;;;15.57;8.07;;;11.70;93.70;;;;;;5027770;28;20030;-77
2023/03/15 00:40:21;;;;;;;14.77;7.50;;;11.70;94.00;;;;;;5037236;28;20031;-78
2023/03/15 00:42:51;;;;;;;20.27;8.20;;;11.70;93.70;;;;;;5049183;28;20025;-78
2023/03/15 00:45:20;;;;;;;14.05;6.90;;;11.70;94.20;;;;;;5019802;28;20481;-77
2023/03/15 00:47:51;;;;;;;12.27;7.00;;;11.70;94.50;;;;;;5046724;28;20029;-76
2023/03/15 00:50:17;;;;;;;13.50;6.28;;;11.70;94.60;;;;;;5041963;28;20029;-77
2023/03/15 00:52:43;;;;;;;10.38;6.32;;;11.70;95.40;;;;;;5051993;28;20027;-77
2023/03/15 00:55:14;;;;;;;14.52;6.88;;;11.60;95.60;;;;;;5052490;28;20039;-77
2023/03/15 00:57:41;;;;;;;12.93;6.63;;;11.50;96.00;;;;;;5050812;28;20468;-78
2023/03/15 01:00:14;;;;;;;10.90;6.00;;;11.40;96.30;;;;;;5052460;28;20469;-78
2023/03/15 01:02:40;;;;;;;16.48;7.47;;;11.40;96.70;;;;;;5050867;28;20048;-79
2023/03/15 01:05:08;;;;;;;11.10;6.55;;;11.40;96.80;;;;;;5041882;28;20052;-78
2023/03/15 01:07:34;;;;;;;14.60;6.57;;;11.40;97.60;;;;;;5051299;28;20025;-77
2023/03/15 01:10:01;;;;;;;13.38;6.60;;;11.30;97.80;;;;;;5052353;28;20032;-77
2023/03/15 01:12:31;;;;;;;17.10;6.75;;;11.30;98.20;;;;;;5053020;28;20029;-77
2023/03/15 01:14:58;;;;;;;13.05;6.18;;;11.30;98.70;;;;;;5054570;28;20025;-77
2023/03/15 01:17:24;;;;;;;12.95;6.38;;;11.30;99.30;;;;;;5054532;28;20025;-76
2023/03/15 01:19:50;;;;;;;16.05;5.80;;;11.20;99.90;;;;;;5056101;28;20468;-78
2023/03/15 01:22:18;;;;;;;10.93;5.93;;;11.10;99.90;;;;;;5056152;28;20021;-77
2023/03/15 01:24:44;;;;;;;11.98;5.70;;;11.10;99.90;;;;;;5055574;28;20072;-76
2023/03/15 01:27:11;;;;;;;12.10;6.68;;;11.00;99.90;;;;;;5055728;28;20021;-77
2023/03/15 01:29:36;;;;;;;10.50;6.38;;;11.00;99.90;;;;;;5054145;28;20041;-77
2023/03/15 01:32:04;;;;;;;12.07;5.45;;;11.00;99.90;;;;;;5054291;28;20453;-77
2023/03/15 01:34:30;;;;;;;13.68;6.90;;;11.00;99.90;;;;;;5054230;28;20033;-77
2023/03/15 01:36:56;;;;;;;14.85;7.18;;;11.00;99.90;;;;;;5055752;28;20028;-76
2023/03/15 01:39:27;;;;;;;14.93;7.88;;;11.00;99.90;;;;;;5054140;28;20025;-76
2023/03/15 01:41:53;;;;;;;13.00;5.93;;;10.90;99.90;;;;;;5055328;28;20025;-76
2023/03/15 01:44:20;;;;;;;13.85;6.78;;;10.90;99.90;;;;;;5054138;28;20066;-76
2023/03/15 01:46:48;;;;;;;11.13;6.20;;;10.80;99.90;;;;;;5053989;28;20125;-76
2023/03/15 01:49:21;;;;;;;14.93;7.25;;;10.80;99.90;;;;;;5050892;28;20060;-75
2023/03/15 01:51:53;;;;;;;13.77;6.50;;;10.80;99.90;;;;;;5054500;28;20041;-75
2023/03/15 01:54:23;;;;;;;;;;;10.80;99.90;;;;;;5045875;28;20028;-76
2023/03/15 01:56:56;;;;;;;14.43;7.05;;;10.70;99.90;;;;;;5048971;28;19916;-74
2023/03/15 01:59:33;;;;;;;12.52;6.07;;;10.70;99.90;;;;;;5054874;28;20032;-78
2023/03/15 02:02:00;;;;;;;18.60;6.70;;;10.70;99.90;;;;;;5044372;28;20392;-77
2023/03/15 02:04:59;;;;;;;13.18;6.00;;;10.70;99.90;;;;;;5055100;28;20472;-77
2023/03/15 02:07:33;;;;;;;13.65;5.95;;;10.70;99.90;;;;;;5043638;28;20033;-77
2023/03/15 02:10:11;;;;;;;11.60;5.47;;;10.70;99.90;;;;;;5051330;28;20392;-78
2023/03/15 02:12:46;;;;;;;12.25;5.88;;;10.70;99.90;;;;;;5053921;28;20028;-77
2023/03/15 02:15:13;;;;;;;9.43;5.32;;;10.70;99.90;;;;;;5053695;28;20060;-78
2023/03/15 02:17:43;;;;;;;11.18;5.28;;;10.60;99.90;;;;;;5053160;28;20036;-77
2023/03/15 02:20:15;;;;;;;10.98;5.40;;;10.60;99.90;;;;;;5047971;28;20026;-77
2023/03/15 02:23:10;;;;;;;9.00;5.30;;;10.60;99.90;;;;;;5048640;28;20056;-77
2023/03/15 02:25:51;;;;;;;12.10;5.93;;;10.60;99.90;;;;;;5054608;28;20480;-77
2023/03/15 02:28:19;;;;;;;9.43;4.70;;;10.60;99.90;;;;;;5031783;28;20469;-78
2023/03/15 02:30:46;;;;;;;10.98;5.18;;;10.60;99.90;;;;;;5054216;28;20029;-77
2023/03/15 02:33:25;;;;;;;10.65;5.10;;;10.60;99.90;;;;;;5054807;28;20108;-77
2023/03/15 02:35:52;;;;;;;13.98;5.93;;;10.60;99.90;;;;;;5054704;28;20041;-78
2023/03/15 02:38:21;;;;;;;10.32;5.60;;;10.70;99.90;;;;;;5055689;28;20158;-77
2023/03/15 02:40:47;;;;;;;10.43;5.15;;;10.70;99.90;;;;;;5058277;28;20381;-77
2023/03/15 02:43:17;;;;;;;10.68;5.13;;;10.60;99.90;;;;;;5057086;28;20453;-76
2023/03/15 02:45:44;;;;;;;14.43;5.95;;;10.60;99.90;;;;;;5050884;28;20362;-77
2023/03/15 02:48:11;;;;;;;10.55;5.53;;;10.50;99.90;;;;;;5044868;28;20078;-77
2023/03/15 02:50:37;;;;;;;9.20;5.47;;;10.50;99.90;;;;;;5052721;28;20025;-78
2023/03/15 02:53:03;;;;;;;11.25;5.25;;;10.50;99.90;;;;;;5058437;28;20353;-77
2023/03/15 02:55:33;;;;;;;10.07;4.47;;;10.50;99.90;;;;;;5058677;28;20044;-78
2023/03/15 02:58:00;;;;;;;14.13;5.00;;;10.50;99.90;;;;;;5052579;28;20032;-77
2023/03/15 03:00:26;;;;;;;10.63;3.85;;;10.60;99.90;;;;;;5052860;28;20031;-78
2023/03/15 03:02:52;;;;;;;13.18;4.28;;;10.70;99.90;;;;;;5046759;28;20022;-78
2023/03/15 03:05:18;;;;;;;7.78;3.92;;;10.70;99.90;;;;;;5033928;28;20086;-77
2023/03/15 03:07:44;;;;;;;9.10;4.65;;;10.60;99.90;;;;;;5034228;28;20037;-78
2023/03/15 03:10:14;;;;;;;8.15;4.25;;;10.50;99.90;;;;;;5032628;28;20602;-77
2023/03/15 03:12:52;;;;;;;9.85;4.53;;;10.50;99.90;;;;;;5032142;28;20026;-78
2023/03/15 03:15:19;;;;;;;8.18;4.25;;;10.50;99.90;;;;;;5079222;28;20132;-77
2023/03/15 03:17:45;;;;;;;6.88;3.95;;;10.50;99.90;;;;;;5054567;28;20383;-77
2023/03/15 03:20:13;;;;;;;7.13;4.13;;;10.40;99.90;;;;;;5049023;28;20025;-76
2023/03/15 03:22:43;;;;;;;8.50;4.10;;;10.40;99.90;;;;;;5038283;28;20026;-76
2023/03/15 03:25:11;;;;;;;7.00;3.97;;;10.40;99.90;;;;;;5041818;28;20046;-76
2023/03/15 03:27:38;;;;;;;9.27;4.75;;;10.30;99.90;;;;;;5052389;28;20025;-77
2023/03/15 03:30:10;;;;;;;7.05;4.07;;;10.20;99.90;;;;;;5052286;28;20506;-77
2023/03/15 03:32:40;;;;;;;9.57;4.15;;;10.30;99.90;;;;;;5041999;28;20025;-75
2023/03/15 03:35:07;;;;;;;13.65;7.07;;;10.20;99.90;;;;;;5039471;28;20037;-76
2023/03/15 03:37:34;;;;;;;16.25;7.40;;;10.30;99.90;;;;;;5050424;28;20087;-76
2023/03/15 03:40:07;;;;;;;12.18;5.47;;;10.30;99.90;;;;;;5051735;28;20032;-77
2023/03/15 03:42:34;;;;;;;16.00;6.90;;;10.20;99.90;;;;;;5045639;28;20029;-77
2023/03/15 03:45:01;;;;;;;12.10;5.90;;;10.20;99.90;;;;;;5083752;28;20055;-77
2023/03/15 03:47:32;;;;;;;14.75;8.00;;;10.30;99.90;;;;;;5052729;28;20033;-77
2023/03/15 03:49:59;;;;;;;11.90;6.63;;;10.20;99.90;;;;;;5051839;28;20025;-77
2023/03/15 03:52:25;;;;;;;9.15;3.53;;;10.20;99.90;;;;;;5036032;28;20032;-78
2023/03/15 03:54:56;;;;;;;5.93;3.13;;;10.20;99.90;;;;;;5039149;28;20032;-77
2023/03/15 03:57:22;;;;;;;5.97;3.15;;;10.20;99.90;;;;;;5051882;28;20115;-77
2023/03/15 03:59:48;;;;;;;6.97;3.60;;;10.10;99.90;;;;;;5051933;28;20029;-78
2023/03/15 04:02:13;;;;;;;8.10;3.22;;;10.10;99.90;;;;;;5042266;28;20461;-78
2023/03/15 04:04:49;;;;;;;;;;;10.10;99.90;;;;;;5039759;28;20535;-77
2023/03/15 04:07:17;;;;;;;8.10;3.63;;;10.10;99.90;;;;;;5051539;28;19962;-77
2023/03/15 04:09:43;;;;;;;7.50;3.45;;;10.10;99.90;;;;;;5051865;28;20024;-78
2023/03/15 04:12:09;;;;;;;6.57;3.00;;;10.20;99.90;;;;;;5047115;28;20036;-78
2023/03/15 04:14:37;;;;;;;7.05;2.90;;;10.10;99.90;;;;;;5081374;28;20037;-78
2023/03/15 04:17:07;;;;;;;5.47;3.30;;;10.10;99.90;;;;;;5047762;28;20495;-78
2023/03/15 04:19:34;;;;;;;23.15;10.82;;;10.10;99.90;;;;;;5041835;28;20060;-78
2023/03/15 04:22:05;;;;;;;31.65;16.80;;;10.10;99.90;;;;;;5052348;28;20021;-78
2023/03/15 04:24:54;;;;;;;9.63;4.45;;;10.00;99.90;;;;;;5010366;28;20138;-78
2023/03/15 04:28:01;;;;;;;29.65;11.15;;;10.10;99.90;;;;;;4960232;28;20170;-78
2023/03/15 04:30:57;;;;;;;15.85;7.57;;;10.00;99.90;;;;;;4942165;29;20163;-78
2023/03/15 04:33:38;;;;;;;15.15;4.95;;;10.00;99.90;;;;;;4953662;28;20127;-76
2023/03/15 04:36:33;;;;;;;25.70;12.80;;;10.00;99.90;;;;;;4895627;29;20033;-78
2023/03/15 04:39:17;;;;;;;21.40;10.10;;;10.00;99.90;;;;;;4896169;29;20059;-77
2023/03/15 04:42:02;;;;;;;15.05;6.95;;;10.00;99.90;;;;;;4895707;29;20453;-78
2023/03/15 04:44:52;;;;;;;19.75;10.10;;;10.00;99.90;;;;;;4895189;29;20123;-79
2023/03/15 04:47:43;;;;;;;13.70;5.35;;;10.00;99.90;;;;;;4893037;29;20468;-79
2023/03/15 04:50:29;;;;;;;7.88;3.80;;;10.00;99.90;;;;;;4899835;29;20579;-79
2023/03/15 04:53:13;;;;;;;10.52;5.15;;;9.90;99.90;;;;;;4887339;29;20563;-79
2023/03/15 04:56:14;;;;;;;12.13;5.90;;;10.00;99.90;;;;;;4862168;29;20165;-81
2023/03/15 04:59:00;;;;;;;11.05;5.78;;;9.90;99.90;;;;;;4858756;29;20073;-80
2023/03/15 05:01:36;;;;;;;11.68;4.40;;;9.90;99.90;;;;;;4862487;29;20046;-80
2023/03/15 05:04:21;;;;;;;12.23;3.58;;;10.00;99.90;;;;;;4884186;29;20047;-80
2023/03/15 05:06:54;;;;;;;7.60;3.38;;;9.90;99.90;;;;;;4900859;29;20045;-79
2023/03/15 05:09:36;;;;;;;5.45;2.80;;;9.90;99.90;;;;;;4899958;29;20392;-79
2023/03/15 05:12:23;;;;;;;6.57;3.65;;;9.90;99.90;;;;;;4919223;28;20035;-77
2023/03/15 05:15:01;;;;;;;11.02;3.53;;;9.90;99.90;;;;;;4995434;28;20089;-81
2023/03/15 05:17:47;;;;;;;5.93;2.92;;;9.80;99.90;;;;;;4975389;28;20493;-81
2023/03/15 05:20:36;;;;;;;8.68;4.07;;;9.80;99.90;;;;;;4975647;28;20085;-80
2023/03/15 05:23:28;;;;;;;7.38;3.90;;;9.80;99.90;;;;;;4959219;28;20098;-81
2023/03/15 05:26:14;;;;;;;8.48;3.58;;;9.80;99.90;;;;;;4969533;28;20057;-78
2023/03/15 05:29:00;;;;;;;6.63;3.28;;;9.80;99.90;;;;;;4974960;28;20034;-80
2023/03/15 05:31:25;;;;;;;8.23;4.07;;;9.80;99.90;;;;;;5054431;28;20392;-77
2023/03/15 05:34:11;;;;;;;9.43;3.17;;;9.80;99.90;;;;;;5023547;28;20697;-80
2023/03/15 05:36:55;;;;;;;7.20;2.78;;;9.80;99.90;;;;;;5047075;28;20040;-80
2023/03/15 05:39:52;;;;;;;5.35;3.13;;;9.80;99.90;;;;;;5032419;28;20061;-80
2023/03/15 05:42:36;;;;;;;7.28;3.42;;;9.80;99.90;;;;;;5043130;28;20037;-80
2023/03/15 05:45:22;;;;;;;7.32;4.40;;;9.80;99.90;;;;;;5039118;28;20033;-80
2023/03/15 05:48:09;;;;;;;7.30;3.55;;;9.80;99.90;;;;;;5004004;28;20088;-80
2023/03/15 05:50:45;;;;;;;6.30;3.63;;;9.80;99.90;;;;;;4970587;28;20046;-78
2023/03/15 05:53:31;;;;;;;7.72;3.55;;;9.80;99.90;;;;;;5004513;28;20107;-79
2023/03/15 05:56:23;;;;;;;6.93;3.85;;;9.80;99.90;;;;;;4975968;28;20133;-80
2023/03/15 05:59:09;;;;;;;6.90;3.63;;;9.80;99.90;;;;;;4991079;28;20041;-78
2023/03/15 06:02:03;;;;;;;10.27;4.45;;;9.80;99.90;;;;;;4961642;28;20121;-79
2023/03/15 06:04:37;;;;;;;15.27;5.85;;;9.80;99.90;;;;;;4993065;28;20046;-80
2023/03/15 06:07:04;;;;;;;13.40;6.30;;;9.80;99.90;;;;;;4968191;28;20030;-79
2023/03/15 06:09:32;;;;;;;12.48;6.13;;;9.80;99.90;;;;;;4957465;28;20490;-79
2023/03/15 06:11:58;;;;;;;9.85;5.63;;;9.80;99.90;;;;;;4973659;28;20045;-80
2023/03/15 06:14:26;;;;;;;11.35;4.90;;;9.70;99.90;;;;;;4958368;28;20039;-79
2023/03/15 06:16:55;;;;;;;13.88;5.78;;;9.70;99.90;;;;;;4973653;28;20031;-80
2023/03/15 06:19:23;;;;;;;10.75;5.88;;;9.70;99.90;;;;;;4974047;28;20038;-79
2023/03/15 06:21:52;;;;;;;15.63;6.30;;;9.70;99.90;;;;;;4973937;28;20113;-79
2023/03/15 06:24:30;;;;;;;9.25;5.15;;;9.70;99.90;;;;;;4967247;28;20030;-79
2023/03/15 06:26:56;;;;;;;11.23;5.53;;;9.70;99.90;;;;;;5035152;28;20548;-79
2023/03/15 06:29:23;;;;;;;9.00;4.63;;;9.70;99.90;;;;;;5070310;28;20021;-81
2023/03/15 06:31:51;;;;;;;8.68;4.95;;;9.70;99.90;;;;;;5053898;28;20074;-79
2023/03/15 06:34:19;;;;;;;9.05;4.60;;;9.70;99.90;;;;;;5042094;28;20037;-80
2023/03/15 06:36:48;;;;;;;10.80;4.47;;;9.70;99.90;;;;;;5075758;28;20039;-75
2023/03/15 06:39:14;;;;;;;9.70;4.78;;;9.70;99.90;;;;;;5033160;28;20476;-80
2023/03/15 06:41:41;;;;;;;9.57;4.63;;;9.70;99.90;;;;;;5046197;28;20032;-79
2023/03/15 06:44:12;;;;;;;6.22;3.60;;;9.60;99.90;;;;;;5053253;28;20083;-79
2023/03/15 06:46:39;;;;;;;7.65;3.40;;;9.60;99.90;;;;;;5054030;28;20365;-79
2023/03/15 06:49:05;;;;;;;8.10;3.85;;;9.70;99.90;;;;;;5052877;28;20519;-79
2023/03/15 06:51:31;;;;;;;8.25;3.03;;;9.80;99.90;;;;;;5052802;28;20116;-78
2023/03/15 06:53:57;;;;;;;7.70;3.55;;;9.80;99.90;;;;;;5053852;28;20392;-79
2023/03/15 06:56:23;;;;;;;5.68;3.10;;;9.80;99.90;;;;;;5053076;28;20044;-79
2023/03/15 06:58:49;;;;;;;7.80;3.08;;;9.80;99.90;;;;;;5054488;28;20025;-79
2023/03/15 07:01:15;;;;;;;6.70;3.63;;;9.80;99.90;;;;;;5053870;28;20025;-78
2023/03/15 07:03:41;;;;;;;9.77;3.65;;;9.80;99.90;;;;;;5040379;28;20053;-79
2023/03/15 07:06:08;;;;;;;7.95;3.90;;;9.80;99.90;;;;;;5034283;28;20025;-79
2023/03/15 07:08:33;;;;;;;8.30;4.07;;;9.80;99.90;;;;;;5033885;28;20033;-77
2023/03/15 07:11:01;;;;;;;10.57;4.28;;;9.80;99.90;;;;;;5033411;28;20393;-80
2023/03/15 07:13:27;;;;;;;10.85;5.50;;;9.90;99.90;;;;;;5033954;28;20402;-79
2023/03/15 07:15:54;;;;;;;6.50;4.13;;;9.90;99.90;;;;;;5051737;28;20036;-80
2023/03/15 07:18:20;;;;;;;9.43;4.13;;;9.80;99.90;;;;;;5052583;28;20377;-79
2023/03/15 07:20:46;;;;;;;10.85;4.75;;;9.80;99.90;;;;;;5053893;28;20032;-79
2023/03/15 07:23:11;;;;;;;12.15;4.53;;;9.80;99.90;;;;;;5052302;28;20388;-79
2023/03/15 07:25:37;;;;;;;10.73;5.18;;;9.80;99.90;;;;;;5053494;28;20029;-79
2023/03/15 07:28:03;;;;;;;14.18;6.43;;;9.80;99.90;;;;;;5053830;28;20048;-79
2023/03/15 07:30:29;;;;;;;8.50;4.10;;;9.80;99.90;;;;;;5053534;28;20028;-80
2023/03/15 07:32:55;;;;;;;9.27;4.30;;;9.80;99.90;;;;;;5053139;28;20521;-77
2023/03/15 07:35:22;;;;;;;12.18;5.68;;;9.70;99.90;;;;;;5053291;28;20044;-78
2023/03/15 07:37:48;;;;;;;14.18;5.35;;;9.80;99.90;;;;;;5042145;28;20025;-79
2023/03/15 07:40:15;;;;;;;9.65;4.85;;;9.80;99.90;;;;;;5051386;28;20017;-79
2023/03/15 07:42:41;;;;;;;6.65;3.90;;;9.90;99.90;;;;;;5053064;28;20021;-78
2023/03/15 07:45:08;;;;;;;7.97;3.50;;;9.80;99.90;;;;;;5053329;28;20511;-80
2023/03/15 07:47:35;;;;;;;8.77;3.97;;;9.90;99.90;;;;;;5053537;28;20025;-79
2023/03/15 07:50:01;;;;;;;9.30;3.85;;;9.90;99.90;;;;;;5052966;28;20020;-79
2023/03/15 07:52:27;;;;;;;12.27;4.97;;;9.90;99.90;;;;;;5053161;28;20464;-80
2023/03/15 07:54:52;;;;;;;7.95;5.28;;;9.90;99.90;;;;;;5053320;28;20035;-80
2023/03/15 07:57:18;;;;;;;9.23;3.78;;;10.00;99.90;;;;;;5053613;28;20108;-78
2023/03/15 07:59:44;;;;;;;8.95;3.88;;;10.00;99.90;;;;;;5053245;28;20028;-80
2023/03/15 08:02:12;;;;;;;6.10;3.08;;;10.20;99.90;;;;;;5053051;28;20020;-79
2023/03/15 08:04:39;;;;;;;6.40;3.97;;;10.20;99.90;;;;;;5052673;28;20045;-80
2023/03/15 08:07:06;;;;;;;7.72;3.50;;;10.20;99.90;;;;;;5053153;28;20460;-81
2023/03/15 08:09:33;;;;;;;5.80;3.20;;;10.20;99.90;;;;;;5053056;28;20033;-80
2023/03/15 08:11:59;;;;;;;4.32;2.80;;;10.20;99.90;;;;;;5052936;28;20151;-80
2023/03/15 08:14:25;;;;;;;12.40;4.22;;;10.10;99.90;;;;;;5052928;28;20082;-80
2023/03/15 08:16:51;;;;;;;8.07;4.15;;;10.10;99.90;;;;;;5034986;28;20029;-80
2023/03/15 08:19:17;;;;;;;12.40;4.80;;;10.10;99.90;;;;;;5052484;28;20032;-77
2023/03/15 08:21:44;;;;;;;7.57;3.83;;;10.10;99.90;;;;;;5055946;28;20036;-75
2023/03/15 08:24:14;;;;;;;5.30;3.03;;;10.10;99.90;;;;;;5057004;28;20021;-79
2023/03/15 08:26:44;;;;;;;4.85;2.75;;;10.00;99.90;;;;;;5057151;28;20033;-79
2023/03/15 08:29:10;;;;;;;5.35;3.00;;;9.90;99.90;;;;;;5056844;28;20099;-81
2023/03/15 08:31:35;;;;;;;8.75;4.70;;;9.90;99.90;;;;;;5057009;28;20036;-81
2023/03/15 08:34:02;;;;;;;5.65;3.08;;;10.00;99.90;;;;;;5056290;28;20041;-78
2023/03/15 08:36:29;;;;;;;7.85;3.58;;;10.00;99.90;;;;;;5056993;28;20086;-81
2023/03/15 08:38:54;;;;;;;6.80;2.92;;;10.00;99.90;;;;;;5056918;28;20452;-81
2023/03/15 08:41:20;;;;;;;7.10;3.55;;;10.00;99.90;;;;;;5056796;28;20100;-81
2023/03/15 08:43:46;;;;;;;10.18;4.85;;;9.90;99.90;;;;;;5056592;28;20087;-81
2023/03/15 08:46:12;;;;;;;7.72;4.15;;;9.90;99.90;;;;;;5056636;28;20044;-80
2023/03/15 08:48:37;;;;;;;5.90;3.67;;;9.90;99.90;;;;;;5055906;28;20052;-80
2023/03/15 08:51:07;;;;;;;6.80;3.80;;;9.80;99.90;;;;;;5056668;28;20422;-79
2023/03/15 08:53:34;;;;;;;10.35;4.32;;;9.80;99.90;;;;;;5056590;28;20481;-80
2023/03/15 08:56:00;;;;;;;8.38;4.00;;;9.80;99.90;;;;;;5056469;28;20048;-80
2023/03/15 08:58:26;;;;;;;9.63;3.75;;;9.70;99.90;;;;;;5056162;28;20029;-80
2023/03/15 09:00:52;;;;;;;7.05;3.60;;;9.70;99.90;;;;;;5056170;28;20420;-79
2023/03/15 09:03:21;;;;;;;4.22;2.92;;;9.70;99.90;;;;;;5055509;28;20033;-79
2023/03/15 09:05:47;;;;;;;6.03;3.22;;;9.60;99.90;;;;;;5056822;28;20055;-80
2023/03/15 09:08:13;;;;;;;5.68;3.00;;;9.60;99.90;;;;;;5056202;28;20480;-81
2023/03/15 09:10:39;;;;;;;6.50;3.13;;;9.60;99.90;;;;;;5056417;28;20033;-78
2023/03/15 09:13:04;;;;;;;6.07;3.53;;;9.50;99.90;;;;;;5055969;28;20063;-80
2023/03/15 09:15:30;;;;;;;5.43;3.25;;;9.60;99.90;;;;;;5055860;28;20037;-80
2023/03/15 09:17:56;;;;;;;6.07;3.53;;;9.50;99.90;;;;;;5055949;28;20067;-80
2023/03/15 09:20:26;;;;;;;7.57;3.00;;;9.50;99.90;;;;;;5056093;28;20029;-80
2023/03/15 09:22:57;;;;;;;9.15;4.47;;;9.40;99.90;;;;;;5055336;28;20017;-79
2023/03/15 09:25:24;;;;;;;11.15;4.18;;;9.40;99.90;;;;;;5056023;28;20377;-75
2023/03/15 09:27:50;;;;;;;7.88;4.30;;;9.50;99.90;;;;;;5055521;28;20056;-79
2023/03/15 09:30:16;;;;;;;8.90;3.80;;;9.50;99.90;;;;;;5055872;28;20036;-78
2023/03/15 09:32:42;;;;;;;6.45;4.22;;;9.60;99.90;;;;;;5054825;28;20009;-81
2023/03/15 09:35:13;;;;;;;5.60;3.17;;;9.50;99.90;;;;;;5056036;28;20061;-80
2023/03/15 09:37:38;;;;;;;10.70;3.50;;;9.50;99.90;;;;;;5055607;28;20071;-80
2023/03/15 09:40:06;;;;;;;5.15;2.58;;;9.40;99.90;;;;;;5055858;28;20049;-77
2023/03/15 09:42:51;;;;;;;6.95;3.70;;;9.40;99.90;;;;;;5055712;28;20021;-80
2023/03/15 09:45:28;;;;;;;4.18;2.05;;;9.40;99.90;;;;;;5055487;28;20484;-79
2023/03/15 09:48:51;;;;;;;3.75;1.95;;;9.20;99.90;;;;;;5055501;28;20024;-79
2023/03/15 09:51:47;;;;;;;3.05;2.33;;;9.00;99.90;;;;;;5033093;28;20025;-79
2023/03/15 09:54:24;;;;;;;7.20;3.40;;;9.00;99.90;;;;;;5033254;28;20082;-79
2023/03/15 09:57:03;;;;;;;6.95;3.35;;;8.90;99.90;;;;;;5033396;28;20185;-79
2023/03/15 09:59:38;;;;;;;10.43;4.03;;;9.00;99.90;;;;;;5033522;28;20037;-80
2023/03/15 10:02:22;;;;;;;14.48;4.22;;;8.90;99.90;;;;;;5033161;28;20094;-78
2023/03/15 10:05:07;;;;;;;7.63;3.05;;;8.80;99.90;;;;;;5032252;28;20050;-78
2023/03/15 10:07:34;;;;;;;3.38;2.15;;;8.80;99.90;;;;;;5032683;28;20034;-78
2023/03/15 10:10:03;;;;;;;3.58;1.83;;;8.70;99.90;;;;;;5033088;28;20049;-79
2023/03/15 10:12:41;;;;;;;3.17;1.88;;;8.60;99.90;;;;;;5033089;28;20037;-78
2023/03/15 10:15:32;;;;;;;2.72;1.88;;;8.40;99.90;;;;;;5032729;28;20123;-79
2023/03/15 10:17:58;;;;;;;4.45;2.15;;;8.40;99.90;;;;;;5032496;28;20465;-78
2023/03/15 10:20:33;;;;;;;4.13;2.33;;;8.30;99.90;;;;;;5016248;28;20039;-77
2023/03/15 10:23:25;;;;;;;5.32;3.03;;;8.40;99.90;;;;;;5054770;28;20025;-77
2023/03/15 10:25:52;;;;;;;;;;;8.40;99.90;;;;;;5054097;28;20128;-79
2023/03/15 10:28:28;;;;;;;5.75;3.20;;;8.40;99.90;;;;;;5054727;28;20386;-79
2023/03/15 10:31:00;;;;;;;13.02;6.78;;;8.50;99.90;;;;;;5054388;28;20059;-80
2023/03/15 10:33:35;;;;;;;6.57;3.10;;;8.40;99.90;;;;;;5054921;28;20017;-79
2023/03/15 10:36:09;;;;;;;5.28;2.95;;;8.40;99.90;;;;;;5054237;28;20037;-79
2023/03/15 10:38:34;;;;;;;2.97;2.10;;;8.30;99.90;;;;;;5054557;28;20479;-76
2023/03/15 10:41:04;;;;;;;5.85;2.13;;;8.30;99.90;;;;;;5054557;28;20029;-78
2023/03/15 10:43:34;;;;;;;8.32;3.30;;;8.20;99.90;;;;;;5054523;28;20032;-79
2023/03/15 10:46:04;;;;;;;7.03;3.92;;;8.20;99.90;;;;;;5053892;28;20116;-79
2023/03/15 10:48:34;;;;;;;6.88;3.30;;;8.20;99.90;;;;;;5054289;28;20047;-78
2023/03/15 10:51:20;;;;;;;5.68;3.20;;;8.10;99.90;;;;;;5054336;28;20377;-79
2023/03/15 10:53:56;;;;;;;5.13;3.22;;;8.10;99.90;;;;;;5053729;28;20491;-78
2023/03/15 10:56:29;;;;;;;4.97;2.80;;;8.00;99.90;;;;;;5053928;28;20041;-78
2023/03/15 10:58:56;;;;;;;4.47;2.42;;;8.00;99.90;;;;;;5028418;28;20511;-78
2023/03/15 11:01:28;;;;;;;5.25;2.72;;;8.00;99.90;;;;;;5054228;28;20112;-79
2023/03/15 11:04:06;;;;;;;4.97;2.55;;;8.00;99.90;;;;;;5038541;28;20057;-79
2023/03/15 11:06:58;;;;;;;4.43;2.22;;;7.90;99.90;;;;;;5034081;28;20033;-79
2023/03/15 11:09:26;;;;;;;12.18;5.38;;;7.90;99.90;;;;;;5033933;28;20465;-79
2023/03/15 11:11:53;;;;;;;11.48;5.45;;;7.90;99.90;;;;;;5034148;28;20045;-76
2023/03/15 11:14:19;;;;;;;3.33;2.40;;;7.80;99.90;;;;;;5038568;28;20465;-78
2023/03/15 11:16:54;;;;;;;8.45;3.85;;;7.70;99.90;;;;;;5053883;28;20025;-78
2023/03/15 11:19:24;;;;;;;13.50;5.65;;;7.70;99.90;;;;;;5053449;28;20029;-76
2023/03/15 11:21:50;;;;;;;18.23;7.47;;;7.70;99.90;;;;;;5053484;28;20090;-72
2023/03/15 11:24:24;;;;;;;7.20;3.25;;;7.70;99.90;;;;;;5053539;28;20078;-78
2023/03/15 11:26:53;;;;;;;9.13;3.80;;;7.60;99.90;;;;;;5053011;28;20028;-73
2023/03/15 11:29:26;;;;;;;5.68;2.45;;;7.50;99.90;;;;;;5053754;28;20499;-78
2023/03/15 11:31:53;;;;;;;3.85;2.10;;;7.50;99.90;;;;;;5053627;28;20033;-78
2023/03/15 11:34:42;;;;;;;9.68;3.88;;;7.50;99.90;;;;;;5053568;28;20035;-78
2023/03/15 11:37:40;;;;;;;9.45;4.03;;;7.50;99.90;;;;;;5053324;28;20021;-77
2023/03/15 11:40:47;;;;;;;5.15;2.55;;;7.50;99.90;;;;;;5045406;28;20052;-78
2023/03/15 11:43:39;;;;;;;5.45;2.33;;;7.30;99.90;;;;;;5030470;28;20046;-78
2023/03/15 11:46:19;;;;;;;8.52;2.92;;;7.20;99.90;;;;;;5014636;28;20045;-74
2023/03/15 11:48:51;;;;;;;7.55;3.35;;;7.10;99.90;;;;;;5014664;28;20440;-78
2023/03/15 11:51:17;;;;;;;4.57;2.28;;;7.00;99.90;;;;;;5030701;28;20049;-78
2023/03/15 11:54:05;;;;;;;7.57;3.50;;;6.90;99.90;;;;;;5031132;28;20037;-77
2023/03/15 11:56:42;;;;;;;7.88;3.20;;;6.80;99.90;;;;;;5030400;28;20041;-78
2023/03/15 11:59:26;;;;;;;9.07;3.80;;;6.80;99.90;;;;;;5030560;28;20121;-78
2023/03/15 12:02:09;;;;;;;9.38;4.03;;;6.70;99.90;;;;;;5030749;28;20041;-78
2023/03/15 12:04:35;;;;;;;7.53;3.35;;;6.60;99.90;;;;;;5030671;28;20137;-80
2023/03/15 12:07:05;;;;;;;6.05;3.28;;;6.60;99.90;;;;;;5030885;28;20060;-79
2023/03/15 12:09:31;;;;;;;8.02;3.83;;;6.50;99.90;;;;;;5030735;28;20146;-76
2023/03/15 12:11:59;;;;;;;9.02;4.13;;;6.50;99.90;;;;;;5031012;28;20560;-78
2023/03/15 12:14:29;;;;;;;10.60;3.00;;;6.50;99.90;;;;;;5045697;28;20037;-77
2023/03/15 12:17:23;;;;;;;7.03;2.92;;;6.40;99.90;;;;;;5053114;28;20029;-78
2023/03/15 12:20:07;;;;;;;9.23;2.85;;;6.40;99.90;;;;;;5052528;28;20033;-80
2023/03/15 12:22:35;;;;;;;7.05;3.22;;;6.40;99.90;;;;;;5052743;28;20480;-78
2023/03/15 12:25:13;;;;;;;5.53;2.92;;;6.30;99.90;;;;;;5052592;28;20017;-80
2023/03/15 12:27:49;;;;;;;5.43;2.85;;;6.30;99.90;;;;;;5052996;28;20112;-79
2023/03/15 12:30:29;;;;;;;7.20;3.10;;;6.20;99.90;;;;;;5052872;28;20460;-79
2023/03/15 12:32:56;;;;;;;6.10;3.25;;;6.20;99.90;;;;;;5052335;28;20032;-80
2023/03/15 12:35:27;;;;;;;7.43;3.15;;;6.20;99.90;;;;;;5052351;28;20072;-80
2023/03/15 12:37:55;;;;;;;12.18;3.53;;;6.20;99.90;;;;;;5052835;28;20030;-75
2023/03/15 12:40:24;;;;;;;9.20;3.28;;;6.10;99.90;;;;;;5052717;28;20021;-79
2023/03/15 12:42:51;;;;;;;6.78;3.80;;;6.10;99.90;;;;;;5052864;28;20108;-77
2023/03/15 12:45:17;;;;;;;6.25;3.33;;;6.10;99.90;;;;;;5052521;28;20028;-79
2023/03/15 12:48:07;;;;;;;9.73;3.72;;;6.10;99.90;;;;;;5052663;28;20029;-77
2023/03/15 12:50:42;;;;;;;9.27;3.88;;;6.20;99.90;;;;;;5049115;28;20068;-77
2023/03/15 12:53:24;;;;;;;9.85;4.22;;;6.10;99.90;;;;;;5052575;28;20029;-79
2023/03/15 12:55:52;;;;;;;11.27;4.85;;;6.20;99.90;;;;;;5029626;28;20065;-78
2023/03/15 12:58:24;;;;;;;8.57;3.90;;;6.10;99.90;;;;;;5050587;28;20025;-78
2023/03/15 13:00:53;;;;;;;11.32;4.38;;;6.10;99.90;;;;;;5042775;28;20036;-79
2023/03/15 13:03:21;;;;;;;8.70;3.97;;;6.10;99.90;;;;;;5052256;28;20021;-78
2023/03/15 13:05:55;;;;;;;11.90;5.80;;;6.10;99.90;;;;;;5052468;28;20041;-78
2023/03/15 13:09:00;;;;;;;12.85;6.00;;;6.10;99.90;;;;;;5054320;28;20029;-79
2023/03/15 13:11:37;;;;;;;16.83;6.07;;;6.10;99.90;;;;;;5033825;28;20037;-78
2023/03/15 13:14:26;;;;;;;11.68;5.03;;;6.10;99.90;;;;;;5034041;28;20525;-79